Time;durP1;ratioP1;P1;durP2;ratioP2;P2;SDS_P1;SDS_P2;PMS_P1;PMS_P2;Temp;Humidity;BMP_temperature;BMP_pressure;BME280_temperature;BME280_humidity;BME280_pressure;Samples;Min_cycle;Max_cycle;Signal;HPM_P1;HPM_P2
2020/12/12 00:02:07;;;;;;;20.50;15.83;;;4.40;99.90;;;;;;4975888;28;20215;-43
2020/12/12 00:04:34;;;;;;;23.53;19.60;;;4.50;99.90;;;;;;4975893;28;20206;-43
2020/12/12 00:07:01;;;;;;;22.85;17.10;;;4.40;99.90;;;;;;4975696;28;20714;-45
2020/12/12 00:09:28;;;;;;;20.87;16.87;;;4.40;99.90;;;;;;4975987;28;20317;-45
2020/12/12 00:11:55;;;;;;;20.93;16.67;;;4.30;99.90;;;;;;4975928;28;20302;-47
2020/12/12 00:14:23;;;;;;;19.83;17.55;;;4.40;99.90;;;;;;4975656;28;20253;-45
2020/12/12 00:16:51;;;;;;;23.10;18.57;;;4.30;99.90;;;;;;4976043;28;20210;-44
2020/12/12 00:19:18;;;;;;;23.70;19.17;;;4.20;99.90;;;;;;4975525;28;20684;-42
2020/12/12 00:21:50;;;;;;;24.30;18.70;;;4.10;99.90;;;;;;4975790;28;20219;-45
2020/12/12 00:24:17;;;;;;;23.03;18.83;;;4.00;99.90;;;;;;4975801;28;20217;-43
2020/12/12 00:26:44;;;;;;;24.93;19.53;;;3.90;99.90;;;;;;4975532;28;20218;-43
2020/12/12 00:29:13;;;;;;;24.53;19.73;;;3.90;99.90;;;;;;4975220;28;20234;-42
2020/12/12 00:31:41;;;;;;;24.83;18.90;;;3.80;99.90;;;;;;4975665;28;20214;-42
2020/12/12 00:34:08;;;;;;;25.33;19.30;;;3.70;99.90;;;;;;4975497;28;20583;-45
2020/12/12 00:36:39;;;;;;;23.03;19.00;;;3.60;99.90;;;;;;4975393;28;20600;-44
2020/12/12 00:39:06;;;;;;;26.17;18.30;;;3.60;99.90;;;;;;4975465;28;20761;-44
2020/12/12 00:41:36;;;;;;;24.97;18.40;;;3.50;99.90;;;;;;4975608;28;20261;-47
2020/12/12 00:44:04;;;;;;;24.03;18.67;;;3.50;99.90;;;;;;4975481;28;20250;-42
2020/12/12 00:46:31;;;;;;;28.63;19.33;;;3.50;99.90;;;;;;4975226;28;20689;-42
2020/12/12 00:48:59;;;;;;;26.80;19.80;;;3.50;99.90;;;;;;4975268;28;20230;-45
2020/12/12 00:51:27;;;;;;;26.48;19.20;;;3.50;99.90;;;;;;4975306;28;20207;-41
2020/12/12 00:53:54;;;;;;;26.60;20.50;;;3.60;99.90;;;;;;4974907;28;20566;-43
2020/12/12 00:56:21;;;;;;;26.37;20.73;;;3.60;99.90;;;;;;4974937;28;20210;-44
2020/12/12 00:58:48;;;;;;;25.10;18.23;;;3.60;99.90;;;;;;4975037;28;20295;-42
2020/12/12 01:01:16;;;;;;;26.40;20.47;;;3.70;99.90;;;;;;4975235;28;20690;-42
2020/12/12 01:03:43;;;;;;;25.77;19.30;;;3.70;99.90;;;;;;4975126;28;20213;-43
2020/12/12 01:06:12;;;;;;;26.27;20.33;;;3.70;99.90;;;;;;4974967;28;20594;-43
2020/12/12 01:08:40;;;;;;;24.83;19.30;;;3.80;99.90;;;;;;4974865;28;20262;-48
2020/12/12 01:11:09;;;;;;;26.97;20.27;;;3.80;99.90;;;;;;4974762;28;20310;-45
2020/12/12 01:13:36;;;;;;;24.95;18.73;;;3.80;99.90;;;;;;4974810;28;20218;-44
2020/12/12 01:16:06;;;;;;;24.97;18.43;;;3.80;99.90;;;;;;4974766;28;20210;-46
2020/12/12 01:18:33;;;;;;;23.93;17.60;;;3.80;99.90;;;;;;4974685;28;20305;-44
2020/12/12 01:21:00;;;;;;;26.50;19.87;;;3.80;99.90;;;;;;4974595;28;20752;-44
2020/12/12 01:23:28;;;;;;;30.42;20.08;;;3.70;99.90;;;;;;4974847;28;20214;-43
2020/12/12 01:25:55;;;;;;;25.37;19.20;;;3.70;99.90;;;;;;4974502;28;20737;-43
2020/12/12 01:28:22;;;;;;;27.13;19.53;;;3.60;99.90;;;;;;4974893;28;20249;-45
2020/12/12 01:30:52;;;;;;;23.80;19.13;;;3.60;99.90;;;;;;4974357;28;20241;-47
2020/12/12 01:33:20;;;;;;;22.60;18.23;;;3.60;99.90;;;;;;4974364;28;20249;-43
2020/12/12 01:35:47;;;;;;;22.97;17.97;;;3.60;99.90;;;;;;4974385;28;20214;-44
2020/12/12 01:38:15;;;;;;;26.57;20.23;;;3.60;99.90;;;;;;4974355;28;20294;-43
2020/12/12 01:40:42;;;;;;;26.47;19.43;;;3.50;99.90;;;;;;4973747;28;20214;-42
2020/12/12 01:43:10;;;;;;;24.55;18.95;;;3.40;99.90;;;;;;4974255;28;20211;-44
2020/12/12 01:45:37;;;;;;;24.40;18.53;;;3.40;99.90;;;;;;4974177;28;20305;-45
2020/12/12 01:48:06;;;;;;;26.83;19.47;;;3.40;99.90;;;;;;4974077;28;20697;-44
2020/12/12 01:50:33;;;;;;;25.30;18.67;;;3.50;99.90;;;;;;4974009;28;20650;-44
2020/12/12 01:53:00;;;;;;;23.50;18.77;;;3.50;99.90;;;;;;4973948;28;20753;-41
2020/12/12 01:55:27;;;;;;;25.93;19.63;;;3.50;99.90;;;;;;4974155;28;20250;-46
2020/12/12 01:57:55;;;;;;;28.63;19.60;;;3.50;99.90;;;;;;4974058;28;20215;-45
2020/12/12 02:00:23;;;;;;;25.93;19.23;;;3.60;99.90;;;;;;4974107;28;20614;-47
2020/12/12 02:02:53;;;;;;;29.73;19.77;;;3.60;99.90;;;;;;4973861;28;20213;-45
2020/12/12 02:05:42;;;;;;;25.67;20.03;;;3.60;99.90;;;;;;4974088;28;20258;-47
2020/12/12 02:08:12;;;;;;;29.17;19.80;;;3.70;99.90;;;;;;4973661;28;20253;-45
2020/12/12 02:10:41;;;;;;;26.20;18.77;;;3.70;99.90;;;;;;4973726;28;20601;-45
2020/12/12 02:13:10;;;;;;;27.67;20.27;;;3.80;99.90;;;;;;4973755;28;20301;-44
2020/12/12 02:15:37;;;;;;;25.93;19.07;;;3.80;99.90;;;;;;4973610;28;20669;-44
2020/12/12 02:18:06;;;;;;;24.50;18.23;;;3.90;99.90;;;;;;4973613;28;20234;-44
2020/12/12 02:20:33;;;;;;;23.27;19.07;;;3.90;99.90;;;;;;4973727;28;20238;-43
2020/12/12 02:23:01;;;;;;;21.80;17.13;;;4.00;99.90;;;;;;4973782;28;20301;-42
2020/12/12 02:25:28;;;;;;;23.43;18.83;;;4.10;99.90;;;;;;4973406;28;20242;-43
2020/12/12 02:27:57;;;;;;;22.43;17.10;;;4.10;99.90;;;;;;4973650;28;20218;-48
2020/12/12 02:30:24;;;;;;;25.02;19.08;;;4.10;99.90;;;;;;4973384;28;20585;-45
2020/12/12 02:32:51;;;;;;;24.17;17.57;;;4.10;99.90;;;;;;4973630;28;20671;-43
2020/12/12 02:35:19;;;;;;;24.63;18.27;;;4.10;99.90;;;;;;4973409;28;20666;-44
2020/12/12 02:37:45;;;;;;;23.27;17.40;;;4.10;99.90;;;;;;4973317;28;20305;-43
2020/12/12 02:40:13;;;;;;;22.27;17.80;;;4.10;99.90;;;;;;4973290;28;20211;-45
2020/12/12 02:42:40;;;;;;;26.40;19.13;;;4.00;99.90;;;;;;4973209;28;20304;-43
2020/12/12 02:45:07;;;;;;;22.87;17.90;;;4.00;99.90;;;;;;4973198;28;20309;-46
2020/12/12 02:47:35;;;;;;;22.90;17.70;;;4.00;99.90;;;;;;4973363;28;20306;-46
2020/12/12 02:50:09;;;;;;;21.70;17.03;;;4.00;99.90;;;;;;4973120;28;20764;-43
2020/12/12 02:52:36;;;;;;;25.63;19.23;;;4.00;99.90;;;;;;4973081;28;20210;-47
2020/12/12 02:55:05;;;;;;;22.63;17.77;;;4.10;99.90;;;;;;4973195;28;20246;-42
2020/12/12 02:57:34;;;;;;;23.30;17.50;;;4.10;99.90;;;;;;4973372;28;20321;-44
2020/12/12 03:00:01;;;;;;;18.77;16.30;;;4.10;99.90;;;;;;4973239;28;20297;-42
2020/12/12 03:02:28;;;;;;;33.70;22.37;;;4.10;99.90;;;;;;4973151;28;20300;-42
2020/12/12 03:04:55;;;;;;;22.30;17.60;;;4.10;99.90;;;;;;4973861;28;20245;-44
2020/12/12 03:07:22;;;;;;;22.17;16.80;;;4.10;99.90;;;;;;4973626;28;20242;-46
2020/12/12 03:09:49;;;;;;;22.10;17.23;;;4.20;99.90;;;;;;4972978;28;20237;-45
2020/12/12 03:12:15;;;;;;;21.63;16.53;;;4.30;99.90;;;;;;4973138;28;20309;-47
2020/12/12 03:14:43;;;;;;;22.83;17.97;;;4.40;99.90;;;;;;4972816;28;20302;-48
2020/12/12 03:17:10;;;;;;;20.03;16.33;;;4.30;99.90;;;;;;4972893;28;20238;-50
2020/12/12 03:19:38;;;;;;;20.50;17.27;;;4.30;99.90;;;;;;4972755;28;20637;-42
2020/12/12 03:22:05;;;;;;;22.33;16.27;;;4.40;99.90;;;;;;4972781;28;20578;-42
2020/12/12 03:24:32;;;;;;;21.20;16.60;;;4.40;99.90;;;;;;4972740;28;20650;-44
2020/12/12 03:27:00;;;;;;;24.50;18.63;;;4.40;99.90;;;;;;4972713;28;20245;-46
2020/12/12 03:29:27;;;;;;;20.23;17.13;;;4.50;99.90;;;;;;4972555;28;20227;-41
2020/12/12 03:31:55;;;;;;;23.73;16.63;;;4.50;99.90;;;;;;4972721;28;20306;-42
2020/12/12 03:34:22;;;;;;;20.90;17.30;;;4.50;99.90;;;;;;4972659;28;20222;-46
2020/12/12 03:36:49;;;;;;;19.80;16.25;;;4.50;99.90;;;;;;4972802;28;20211;-45
2020/12/12 03:39:16;;;;;;;21.50;17.52;;;4.50;99.90;;;;;;4972795;28;20298;-44
2020/12/12 03:41:43;;;;;;;21.37;17.77;;;4.50;99.90;;;;;;4972671;28;20217;-44
2020/12/12 03:44:10;;;;;;;29.90;20.53;;;4.50;99.90;;;;;;4972672;28;20210;-42
2020/12/12 03:46:37;;;;;;;22.47;17.83;;;4.50;99.90;;;;;;4972575;28;20210;-43
2020/12/12 03:49:05;;;;;;;26.10;19.40;;;4.50;99.90;;;;;;4972566;28;20697;-43
2020/12/12 03:51:32;;;;;;;20.20;17.30;;;4.40;99.90;;;;;;4972120;28;20207;-44
2020/12/12 03:53:59;;;;;;;19.97;15.83;;;4.40;99.90;;;;;;4972243;28;20210;-40
2020/12/12 03:56:26;;;;;;;22.30;17.97;;;4.50;99.90;;;;;;4972145;28;20736;-44
2020/12/12 03:58:53;;;;;;;23.73;18.63;;;4.50;99.90;;;;;;4972085;28;20253;-42
2020/12/12 04:01:20;;;;;;;22.23;19.43;;;4.50;99.90;;;;;;4972034;28;20281;-42
2020/12/12 04:03:47;;;;;;;23.83;16.85;;;4.50;99.90;;;;;;4973904;28;20210;-44
2020/12/12 04:06:15;;;;;;;17.77;15.40;;;4.50;99.90;;;;;;4975778;28;20218;-43
2020/12/12 04:08:42;;;;;;;21.35;18.05;;;4.50;99.90;;;;;;4976107;28;20247;-44
2020/12/12 04:11:09;;;;;;;21.23;17.30;;;4.50;99.90;;;;;;4975966;28;20330;-43
2020/12/12 04:13:36;;;;;;;22.63;17.13;;;4.50;99.90;;;;;;4976152;28;20217;-43
2020/12/12 04:16:03;;;;;;;19.00;16.47;;;4.60;99.90;;;;;;4975956;28;20210;-42
2020/12/12 04:18:31;;;;;;;21.73;16.80;;;4.60;99.90;;;;;;4976025;28;20265;-42
2020/12/12 04:20:58;;;;;;;19.02;15.25;;;4.60;99.90;;;;;;4975932;28;20302;-42
2020/12/12 04:23:25;;;;;;;20.37;17.27;;;4.60;99.90;;;;;;4975868;28;20301;-42
2020/12/12 04:25:53;;;;;;;18.80;15.97;;;4.60;99.90;;;;;;4975829;28;20526;-45
2020/12/12 04:28:20;;;;;;;20.25;17.08;;;4.60;99.90;;;;;;4975648;28;20729;-44
2020/12/12 04:30:47;;;;;;;21.30;17.17;;;4.60;99.90;;;;;;4975818;28;20317;-43
2020/12/12 04:33:14;;;;;;;18.55;16.08;;;4.60;99.90;;;;;;4975941;28;20314;-43
2020/12/12 04:35:41;;;;;;;23.90;17.53;;;4.60;99.90;;;;;;4975727;28;20293;-45
2020/12/12 04:38:08;;;;;;;21.47;16.90;;;4.50;99.90;;;;;;4975669;28;20646;-49
2020/12/12 04:40:36;;;;;;;19.40;15.70;;;4.40;99.90;;;;;;4975463;28;20302;-44
2020/12/12 04:43:03;;;;;;;19.77;15.50;;;4.40;99.90;;;;;;4975357;28;20346;-44
2020/12/12 04:45:31;;;;;;;18.30;15.60;;;4.30;99.90;;;;;;4975625;28;20298;-42
2020/12/12 04:47:58;;;;;;;22.17;16.93;;;4.40;99.90;;;;;;4975598;28;20665;-44
2020/12/12 04:50:29;;;;;;;19.00;15.43;;;4.40;99.90;;;;;;4975451;28;20623;-43
2020/12/12 04:52:57;;;;;;;21.80;16.47;;;4.40;99.90;;;;;;4975328;28;20689;-47
2020/12/12 04:55:25;;;;;;;20.03;16.33;;;4.40;99.90;;;;;;4975204;28;20250;-45
2020/12/12 04:57:54;;;;;;;19.52;16.48;;;4.40;99.90;;;;;;4975225;28;20302;-46
2020/12/12 05:00:22;;;;;;;22.47;16.43;;;4.40;99.90;;;;;;4975403;28;20290;-48
2020/12/12 05:02:49;;;;;;;23.37;17.47;;;4.30;99.90;;;;;;4975113;28;20269;-42
2020/12/12 05:05:16;;;;;;;22.85;17.70;;;4.20;99.90;;;;;;4975146;28;20253;-47
2020/12/12 05:07:43;;;;;;;21.58;16.70;;;4.10;99.90;;;;;;4974955;28;20252;-46
2020/12/12 05:10:11;;;;;;;20.67;16.87;;;4.10;99.90;;;;;;4974836;28;20241;-43
2020/12/12 05:12:40;;;;;;;21.10;16.63;;;4.00;99.90;;;;;;4974312;28;20665;-46
2020/12/12 05:15:08;;;;;;;20.33;16.95;;;4.00;99.90;;;;;;4973505;28;20213;-45
2020/12/12 05:17:35;;;;;;;22.00;17.77;;;3.90;99.90;;;;;;4974926;28;20293;-50
2020/12/12 05:20:03;;;;;;;20.03;16.97;;;3.90;99.90;;;;;;4974735;28;20299;-45
2020/12/12 05:22:32;;;;;;;22.27;17.47;;;3.80;99.90;;;;;;4975198;28;20302;-50
2020/12/12 05:25:00;;;;;;;20.40;17.20;;;3.80;99.90;;;;;;4974885;28;20354;-48
2020/12/12 05:27:27;;;;;;;22.42;16.13;;;3.70;99.90;;;;;;4974566;28;20741;-49
2020/12/12 05:29:58;;;;;;;21.23;17.53;;;3.70;99.90;;;;;;4974502;28;20293;-50
2020/12/12 05:32:27;;;;;;;21.77;16.60;;;3.70;99.90;;;;;;4974802;28;20643;-45
2020/12/12 05:34:57;;;;;;;20.63;16.30;;;3.70;99.90;;;;;;4974545;28;20574;-47
2020/12/12 05:37:26;;;;;;;23.43;17.97;;;3.60;99.90;;;;;;4974414;28;20222;-46
2020/12/12 05:39:56;;;;;;;21.23;18.77;;;3.60;99.90;;;;;;4974591;28;20297;-45
2020/12/12 05:42:24;;;;;;;21.17;16.20;;;3.70;99.90;;;;;;4974509;28;20626;-49
2020/12/12 05:44:53;;;;;;;23.63;17.67;;;3.70;99.90;;;;;;4974489;28;20309;-48
2020/12/12 05:47:20;;;;;;;21.73;16.50;;;3.70;99.90;;;;;;4974395;28;20217;-48
2020/12/12 05:49:48;;;;;;;21.37;15.87;;;3.70;99.90;;;;;;4974168;28;20282;-50
2020/12/12 05:52:17;;;;;;;21.63;18.23;;;3.70;99.90;;;;;;4974437;28;20242;-47
2020/12/12 05:54:44;;;;;;;21.37;17.57;;;3.60;99.90;;;;;;4974241;28;20217;-47
2020/12/12 05:57:12;;;;;;;21.57;17.47;;;3.50;99.90;;;;;;4974236;28;20234;-45
2020/12/12 05:59:39;;;;;;;20.80;17.63;;;3.60;99.90;;;;;;4974127;28;20210;-46
2020/12/12 06:02:07;;;;;;;25.08;19.92;;;3.60;99.90;;;;;;4974077;28;20229;-47
2020/12/12 06:04:40;;;;;;;22.03;17.70;;;3.60;99.90;;;;;;4974417;28;20222;-47
2020/12/12 06:07:17;;;;;;;25.67;18.50;;;3.70;99.90;;;;;;4974387;28;20304;-52
2020/12/12 06:09:49;;;;;;;22.33;18.47;;;3.70;99.90;;;;;;4974001;28;20321;-45
2020/12/12 06:12:18;;;;;;;22.40;18.43;;;3.70;99.90;;;;;;4974012;28;20336;-46
2020/12/12 06:14:49;;;;;;;22.83;18.03;;;3.80;99.90;;;;;;4973752;28;20238;-45
2020/12/12 06:17:22;;;;;;;21.30;16.67;;;3.90;99.90;;;;;;4973792;28;20214;-47
2020/12/12 06:19:52;;;;;;;22.63;17.60;;;3.90;99.90;;;;;;4973861;28;20298;-48
2020/12/12 06:22:22;;;;;;;20.57;16.20;;;3.90;99.90;;;;;;4973701;28;20669;-45
2020/12/12 06:24:59;;;;;;;20.43;16.70;;;4.00;99.90;;;;;;4973365;28;20258;-45
2020/12/12 06:27:31;;;;;;;25.37;16.70;;;4.10;99.90;;;;;;4973357;28;20281;-47
2020/12/12 06:30:00;;;;;;;20.60;16.40;;;4.10;99.90;;;;;;4973947;28;20278;-48
2020/12/12 06:32:27;;;;;;;21.17;17.03;;;4.20;99.90;;;;;;4973524;28;20211;-47
2020/12/12 06:34:55;;;;;;;23.00;18.27;;;4.20;99.90;;;;;;4973569;28;20238;-47
2020/12/12 06:37:27;;;;;;;22.70;18.60;;;4.20;99.90;;;;;;4973657;28;20274;-45
2020/12/12 06:39:54;;;;;;;22.90;17.65;;;4.30;99.90;;;;;;4973543;28;20298;-44
2020/12/12 06:42:33;;;;;;;20.30;18.07;;;4.20;99.90;;;;;;4973666;28;20207;-47
2020/12/12 06:45:01;;;;;;;28.10;21.93;;;4.10;99.90;;;;;;4973574;28;20214;-45
2020/12/12 06:47:37;;;;;;;23.13;19.37;;;4.10;99.90;;;;;;4973300;28;20246;-46
2020/12/12 06:50:06;;;;;;;23.30;18.47;;;4.10;99.90;;;;;;4973085;28;20227;-46
2020/12/12 06:52:34;;;;;;;20.93;16.80;;;4.10;99.90;;;;;;4973338;28;20811;-45
2020/12/12 06:55:04;;;;;;;19.93;16.47;;;4.10;99.90;;;;;;4973495;28;20214;-46
2020/12/12 06:57:35;;;;;;;18.73;16.17;;;4.10;99.90;;;;;;4973391;28;20301;-46
2020/12/12 07:00:03;;;;;;;22.73;17.50;;;4.10;99.90;;;;;;4973307;28;20306;-44
2020/12/12 07:02:30;;;;;;;18.93;16.23;;;4.00;99.90;;;;;;4973148;28;20246;-43
2020/12/12 07:05:17;;;;;;;22.73;16.37;;;4.00;99.90;;;;;;4973096;28;20698;-46
2020/12/12 07:07:46;;;;;;;21.93;17.77;;;4.10;99.90;;;;;;4972942;28;20679;-45
2020/12/12 07:10:13;;;;;;;23.13;17.25;;;4.10;99.90;;;;;;4972957;28;20293;-50
2020/12/12 07:12:41;;;;;;;23.97;17.43;;;4.10;99.90;;;;;;4973136;28;20289;-46
2020/12/12 07:15:08;;;;;;;20.93;15.77;;;4.10;99.90;;;;;;4972716;28;20588;-45
2020/12/12 07:17:35;;;;;;;20.57;16.67;;;4.10;99.90;;;;;;4973308;28;20414;-44
2020/12/12 07:20:03;;;;;;;22.73;17.67;;;4.10;99.90;;;;;;4973134;28;20211;-46
2020/12/12 07:22:30;;;;;;;19.93;16.43;;;4.10;99.90;;;;;;4972720;28;20206;-44
2020/12/12 07:25:00;;;;;;;21.33;17.87;;;4.20;99.90;;;;;;4972675;28;20215;-46
2020/12/12 07:27:27;;;;;;;19.50;16.23;;;4.30;99.90;;;;;;4972553;28;20305;-43
2020/12/12 07:29:54;;;;;;;21.57;16.90;;;4.40;99.90;;;;;;4972069;28;20658;-45
2020/12/12 07:32:21;;;;;;;20.93;16.03;;;4.50;99.90;;;;;;4972696;28;20648;-44
2020/12/12 07:34:48;;;;;;;18.70;16.37;;;4.50;99.90;;;;;;4972823;28;20273;-48
2020/12/12 07:37:15;;;;;;;19.20;16.00;;;4.40;99.90;;;;;;4972850;28;20319;-50
2020/12/12 07:39:43;;;;;;;21.63;17.53;;;4.40;99.90;;;;;;4975653;28;20305;-48
2020/12/12 07:42:12;;;;;;;19.70;16.50;;;4.50;99.90;;;;;;4976366;28;20219;-48
2020/12/12 07:44:50;;;;;;;21.87;16.43;;;4.60;99.90;;;;;;4976501;28;20246;-44
2020/12/12 07:47:17;;;;;;;21.10;15.25;;;4.70;99.90;;;;;;4976372;28;20241;-45
2020/12/12 07:49:44;;;;;;;21.13;16.00;;;4.80;99.90;;;;;;4976313;28;20272;-46
2020/12/12 07:52:13;;;;;;;20.90;16.70;;;4.80;99.90;;;;;;4976529;28;20297;-44
2020/12/12 07:54:43;;;;;;;19.07;15.90;;;4.80;99.90;;;;;;4976083;28;20238;-44
2020/12/12 07:57:13;;;;;;;21.80;16.85;;;4.90;99.90;;;;;;4976093;28;20677;-45
2020/12/12 07:59:41;;;;;;;20.33;17.57;;;5.00;99.90;;;;;;4976667;28;20578;-43
2020/12/12 08:02:09;;;;;;;20.70;16.70;;;5.00;99.90;;;;;;4976094;28;20661;-43
2020/12/12 08:04:37;;;;;;;25.07;18.27;;;4.90;99.90;;;;;;4976028;28;20225;-46
2020/12/12 08:07:12;;;;;;;22.43;18.70;;;5.00;99.90;;;;;;4975873;28;20246;-42
2020/12/12 08:09:46;;;;;;;25.23;19.23;;;5.10;99.90;;;;;;4975990;28;20296;-43
2020/12/12 08:12:22;;;;;;;19.45;15.30;;;5.10;99.90;;;;;;4976055;28;20285;-45
2020/12/12 08:14:49;;;;;;;21.50;16.43;;;5.10;99.90;;;;;;4975997;28;20245;-43
2020/12/12 08:17:17;;;;;;;23.17;18.08;;;5.10;99.90;;;;;;4975875;28;20590;-44
2020/12/12 08:19:48;;;;;;;24.35;18.90;;;5.10;99.90;;;;;;4975694;28;20240;-44
2020/12/12 08:22:18;;;;;;;26.83;19.97;;;5.00;99.90;;;;;;4975955;28;20231;-42
2020/12/12 08:24:46;;;;;;;23.47;17.37;;;4.90;99.90;;;;;;4975793;28;20211;-42
2020/12/12 08:27:14;;;;;;;23.87;17.10;;;5.00;99.90;;;;;;4975708;28;20250;-43
2020/12/12 08:29:44;;;;;;;22.75;17.73;;;4.90;99.90;;;;;;4975737;28;20285;-46
2020/12/12 08:32:26;;;;;;;20.07;16.43;;;4.90;99.90;;;;;;4975443;28;20804;-42
2020/12/12 08:35:10;;;;;;;30.10;20.40;;;5.00;99.90;;;;;;4975601;28;20214;-45
2020/12/12 08:37:38;;;;;;;29.05;21.70;;;5.10;99.90;;;;;;4975771;28;20257;-46
2020/12/12 08:40:07;;;;;;;24.73;19.97;;;5.10;99.90;;;;;;4975350;28;20538;-42
2020/12/12 08:42:35;;;;;;;31.87;22.80;;;5.10;99.90;;;;;;4975602;28;20211;-43
2020/12/12 08:45:16;;;;;;;28.93;22.07;;;5.00;99.90;;;;;;4975680;28;20239;-43
2020/12/12 08:47:43;;;;;;;27.73;20.40;;;5.00;99.90;;;;;;4976364;28;20230;-44
2020/12/12 08:50:11;;;;;;;33.47;19.75;;;5.00;99.90;;;;;;4974758;28;20302;-43
2020/12/12 08:52:39;;;;;;;38.45;22.83;;;5.00;99.90;;;;;;4975094;28;20220;-44
2020/12/12 08:55:06;;;;;;;29.20;21.37;;;4.90;99.90;;;;;;4974920;28;20214;-44
2020/12/12 08:57:34;;;;;;;26.37;21.07;;;4.90;99.90;;;;;;4975091;28;20669;-47
2020/12/12 09:00:01;;;;;;;32.20;20.60;;;4.80;99.90;;;;;;4975006;28;20211;-45
2020/12/12 09:02:29;;;;;;;26.63;20.33;;;4.80;99.90;;;;;;4975109;28;20281;-46
2020/12/12 09:05:07;;;;;;;25.00;18.10;;;4.80;99.90;;;;;;4975187;28;20242;-43
2020/12/12 09:07:36;;;;;;;24.97;17.83;;;4.70;99.90;;;;;;4974754;28;20619;-45
2020/12/12 09:10:12;;;;;;;20.63;15.87;;;4.70;99.90;;;;;;4975031;28;20242;-47
2020/12/12 09:12:44;;;;;;;22.90;16.40;;;4.70;99.90;;;;;;4975024;28;20265;-44
2020/12/12 09:15:11;;;;;;;26.83;17.90;;;4.70;99.90;;;;;;4974635;28;20207;-43
2020/12/12 09:17:41;;;;;;;24.47;17.97;;;4.80;99.90;;;;;;4974897;28;20269;-47
2020/12/12 09:20:09;;;;;;;19.07;15.37;;;4.80;99.90;;;;;;4974801;28;20289;-43
2020/12/12 09:22:36;;;;;;;22.00;17.13;;;4.80;99.90;;;;;;4975063;28;20219;-46
2020/12/12 09:25:04;;;;;;;24.77;18.27;;;4.90;99.90;;;;;;4974868;28;20720;-45
2020/12/12 09:27:34;;;;;;;24.17;18.47;;;4.90;99.90;;;;;;4974967;28;20234;-43
2020/12/12 09:30:01;;;;;;;22.00;17.08;;;5.00;99.90;;;;;;4958895;28;20650;-43
2020/12/12 09:32:28;;;;;;;21.37;16.67;;;5.00;99.90;;;;;;4955368;28;20318;-44
2020/12/12 09:34:56;;;;;;;19.48;16.35;;;5.10;99.90;;;;;;4955591;29;20574;-43
2020/12/12 09:37:23;;;;;;;23.43;16.90;;;5.10;99.90;;;;;;4955015;29;20212;-42
2020/12/12 09:39:50;;;;;;;23.97;17.60;;;5.20;99.90;;;;;;4955345;28;20235;-43
2020/12/12 09:42:17;;;;;;;21.13;16.57;;;5.20;99.90;;;;;;4955215;29;20270;-43
2020/12/12 09:44:44;;;;;;;24.63;17.15;;;5.40;99.90;;;;;;4955105;29;20211;-44
2020/12/12 09:47:11;;;;;;;23.97;18.17;;;5.40;99.90;;;;;;4955054;28;20745;-45
2020/12/12 09:49:41;;;;;;;23.63;17.33;;;5.50;99.90;;;;;;4955544;29;20299;-45
2020/12/12 09:52:09;;;;;;;20.10;15.63;;;5.50;99.90;;;;;;4955080;28;20231;-43
2020/12/12 09:54:36;;;;;;;18.97;15.30;;;5.50;99.90;;;;;;4955136;28;20234;-47
2020/12/12 09:57:03;;;;;;;22.43;18.50;;;5.70;99.90;;;;;;4954569;28;20212;-44
2020/12/12 09:59:30;;;;;;;20.53;16.10;;;5.80;99.90;;;;;;4954314;28;20215;-45
2020/12/12 10:01:57;;;;;;;16.57;14.10;;;6.00;99.90;;;;;;4954232;28;20610;-46
2020/12/12 10:04:24;;;;;;;22.98;18.08;;;6.10;99.90;;;;;;4954793;29;20222;-45
2020/12/12 10:06:51;;;;;;;19.70;15.93;;;6.20;99.90;;;;;;4954308;29;20666;-47
2020/12/12 10:09:19;;;;;;;16.90;15.03;;;6.30;99.90;;;;;;4954620;28;20212;-47
2020/12/12 10:11:50;;;;;;;19.58;14.82;;;6.40;99.90;;;;;;4954464;29;20761;-45
2020/12/12 10:14:17;;;;;;;16.38;13.93;;;6.40;99.90;;;;;;4954350;28;20219;-50
2020/12/12 10:16:44;;;;;;;16.40;14.63;;;6.50;99.90;;;;;;4954599;29;20298;-48
2020/12/12 10:19:11;;;;;;;16.47;13.77;;;6.60;99.90;;;;;;4954575;28;20216;-48
2020/12/12 10:21:38;;;;;;;16.97;14.07;;;6.70;99.90;;;;;;4954567;28;20257;-48
2020/12/12 10:24:05;;;;;;;15.43;12.90;;;6.70;99.90;;;;;;4954697;28;20251;-45
2020/12/12 10:26:33;;;;;;;17.90;14.10;;;6.70;99.90;;;;;;4954260;28;20266;-51
2020/12/12 10:29:00;;;;;;;15.07;13.33;;;6.70;99.90;;;;;;4961692;28;20226;-46
2020/12/12 10:31:28;;;;;;;50.88;32.90;;;6.80;99.90;;;;;;4973491;28;20230;-45
2020/12/12 10:33:55;;;;;;;16.92;15.07;;;6.70;99.90;;;;;;4973625;28;20213;-43
2020/12/12 10:36:28;;;;;;;19.20;15.45;;;6.80;99.90;;;;;;4973765;28;20218;-50
2020/12/12 10:38:55;;;;;;;17.60;13.40;;;6.90;99.90;;;;;;4973746;28;20246;-46
2020/12/12 10:41:28;;;;;;;14.68;12.85;;;7.00;99.90;;;;;;4973464;28;20203;-45
2020/12/12 10:43:55;;;;;;;15.30;12.95;;;7.10;99.90;;;;;;4973404;28;20286;-47
2020/12/12 10:46:23;;;;;;;18.30;16.13;;;7.10;99.90;;;;;;4973529;28;20542;-46
2020/12/12 10:48:50;;;;;;;15.82;14.23;;;7.10;99.90;;;;;;4973338;28;20264;-46
2020/12/12 10:51:17;;;;;;;16.42;14.27;;;7.00;99.90;;;;;;4973087;28;20231;-47
2020/12/12 10:53:44;;;;;;;16.00;14.13;;;6.90;99.90;;;;;;4973266;28;20249;-44
2020/12/12 10:56:13;;;;;;;18.43;16.47;;;6.80;99.90;;;;;;4973625;28;20217;-44
2020/12/12 10:58:40;;;;;;;15.07;13.47;;;6.70;99.90;;;;;;4973137;28;20210;-46
2020/12/12 11:01:08;;;;;;;13.20;11.60;;;6.70;99.90;;;;;;4973242;28;20254;-44
2020/12/12 11:03:35;;;;;;;21.55;19.40;;;6.60;99.90;;;;;;4973284;28;20269;-43
2020/12/12 11:06:02;;;;;;;15.80;13.33;;;6.70;99.90;;;;;;4972923;28;20306;-46
2020/12/12 11:08:29;;;;;;;13.10;11.40;;;6.70;99.90;;;;;;4972710;28;20281;-45
2020/12/12 11:10:56;;;;;;;12.87;11.57;;;6.80;99.90;;;;;;4973047;28;20337;-45
2020/12/12 11:13:23;;;;;;;14.93;11.43;;;6.80;99.90;;;;;;4975769;28;20690;-47
2020/12/12 11:15:51;;;;;;;11.63;10.43;;;6.90;99.90;;;;;;4976926;28;20214;-47
2020/12/12 11:18:19;;;;;;;12.17;10.87;;;7.00;99.90;;;;;;4976997;28;20301;-45
2020/12/12 11:20:47;;;;;;;13.33;11.37;;;7.10;99.90;;;;;;4976670;28;20207;-44
2020/12/12 11:23:14;;;;;;;11.83;10.60;;;7.20;99.90;;;;;;4976582;28;20634;-42
2020/12/12 11:25:41;;;;;;;11.57;10.37;;;7.20;99.90;;;;;;4976677;28;20246;-43
2020/12/12 11:28:08;;;;;;;12.20;10.03;;;7.30;99.90;;;;;;4976212;28;20301;-43
2020/12/12 11:30:35;;;;;;;11.40;10.30;;;7.40;99.90;;;;;;4957317;28;20242;-44
2020/12/12 11:33:04;;;;;;;10.77;9.47;;;7.60;99.90;;;;;;4957335;29;20217;-48
2020/12/12 11:35:37;;;;;;;10.97;9.50;;;7.80;99.90;;;;;;4957419;28;20249;-43
2020/12/12 11:38:16;;;;;;;10.47;9.37;;;7.80;99.90;;;;;;4957569;29;20247;-44
2020/12/12 11:40:51;;;;;;;12.30;10.17;;;7.90;99.90;;;;;;4957431;29;20257;-45
2020/12/12 11:46:27;;;;;;;10.50;9.40;;;7.80;99.90;;;;;;4950925;28;20662;-47
2020/12/12 11:48:55;;;;;;;9.25;8.18;;;7.80;99.90;;;;;;4957581;28;20298;-46
2020/12/12 11:51:23;;;;;;;8.60;7.25;;;7.80;99.90;;;;;;4956938;29;20231;-45
2020/12/12 11:53:50;;;;;;;9.80;8.80;;;7.80;99.90;;;;;;4957190;29;20257;-46
2020/12/12 11:56:21;;;;;;;22.30;17.17;;;7.80;99.90;;;;;;4956741;28;20329;-49
2020/12/12 11:58:48;;;;;;;10.00;8.20;;;7.80;99.90;;;;;;4957118;28;20299;-46
2020/12/12 12:01:23;;;;;;;8.43;7.70;;;7.80;99.90;;;;;;4956994;28;20298;-46
2020/12/12 12:03:52;;;;;;;13.63;7.88;;;7.80;99.90;;;;;;4956915;28;20214;-45
2020/12/12 12:06:19;;;;;;;8.18;7.38;;;7.70;99.90;;;;;;4956667;28;20307;-51
2020/12/12 12:09:00;;;;;;;10.00;8.23;;;7.60;99.90;;;;;;4956407;28;20239;-44
2020/12/12 12:11:31;;;;;;;8.60;7.70;;;7.60;99.90;;;;;;4956588;28;20239;-45
2020/12/12 12:13:59;;;;;;;8.77;7.87;;;7.50;99.90;;;;;;4956946;29;20294;-44
2020/12/12 12:16:27;;;;;;;8.87;8.03;;;7.50;99.90;;;;;;4956665;29;20250;-46
2020/12/12 12:18:54;;;;;;;12.95;8.23;;;7.50;99.90;;;;;;4956618;29;20286;-46
2020/12/12 12:21:22;;;;;;;9.10;8.20;;;7.60;99.90;;;;;;4956634;29;20287;-45
2020/12/12 12:23:49;;;;;;;11.40;10.20;;;7.60;99.90;;;;;;4955954;28;20684;-45
2020/12/12 12:26:16;;;;;;;8.00;6.63;;;7.50;99.90;;;;;;4956533;28;20298;-44
2020/12/12 12:28:43;;;;;;;9.63;7.05;;;7.50;99.90;;;;;;4956652;29;20243;-45
2020/12/12 12:31:10;;;;;;;10.57;8.90;;;7.40;99.90;;;;;;4956228;29;20318;-45
2020/12/12 12:33:38;;;;;;;12.07;10.00;;;7.40;99.90;;;;;;4956497;29;20215;-44
2020/12/12 12:36:05;;;;;;;9.57;7.80;;;7.40;99.90;;;;;;4956353;28;20211;-47
2020/12/12 12:38:32;;;;;;;8.80;7.68;;;7.40;99.90;;;;;;4956454;28;20298;-45
2020/12/12 12:41:00;;;;;;;6.45;5.85;;;7.40;99.90;;;;;;4956290;28;20298;-44
2020/12/12 12:43:27;;;;;;;8.95;6.25;;;7.40;99.90;;;;;;4957703;29;20242;-48
2020/12/12 12:45:54;;;;;;;7.15;5.75;;;7.30;99.90;;;;;;4956678;29;20302;-46
2020/12/12 12:48:21;;;;;;;6.72;5.55;;;7.30;99.90;;;;;;4956336;28;20238;-45